createdAt,value
2019-05-10T00:02:00.691Z,6.90
2019-05-10T00:04:51.144Z,6.60
2019-05-10T00:07:41.123Z,7.20
2019-05-10T00:10:12.487Z,7.10
2019-05-10T00:12:55.089Z,6.90
2019-05-10T00:15:30.607Z,7.57
2019-05-10T00:18:03.514Z,7.10
2019-05-10T00:20:35.774Z,7.43
2019-05-10T00:23:08.080Z,7.45
2019-05-10T00:25:40.363Z,7.27
2019-05-10T00:28:12.628Z,8.17
2019-05-10T00:30:45.225Z,7.83
2019-05-10T00:33:17.817Z,8.03
2019-05-10T00:35:50.183Z,7.90
2019-05-10T00:38:22.514Z,8.37
2019-05-10T00:40:54.784Z,9.20
2019-05-10T00:43:27.365Z,8.70
2019-05-10T00:45:59.908Z,8.80
2019-05-10T00:48:32.297Z,7.90
2019-05-10T00:51:05.795Z,9.03
2019-05-10T00:53:38.417Z,8.07
2019-05-10T00:56:10.774Z,8.50
2019-05-10T00:58:43.355Z,8.67
2019-05-10T01:01:18.694Z,10.03
2019-05-10T01:03:49.704Z,9.80
2019-05-10T01:06:22.985Z,8.23
2019-05-10T01:08:55.513Z,8.87
2019-05-10T01:11:27.831Z,9.13
2019-05-10T01:14:00.124Z,9.43
2019-05-10T01:16:32.444Z,9.33
2019-05-10T01:19:05.001Z,8.87
2019-05-10T01:21:37.458Z,9.77
2019-05-10T01:24:09.804Z,9.50
2019-05-10T01:26:42.332Z,9.97
2019-05-10T01:29:14.908Z,10.43
2019-05-10T01:31:47.436Z,10.00
2019-05-10T01:34:20.976Z,10.87
2019-05-10T01:36:53.258Z,10.82
2019-05-10T01:39:25.579Z,11.80
2019-05-10T01:41:57.854Z,10.87
2019-05-10T01:44:30.158Z,10.80
2019-05-10T01:47:02.479Z,10.40
2019-05-10T01:49:35.019Z,11.03
2019-05-10T01:52:07.329Z,11.40
2019-05-10T01:54:39.629Z,11.67
2019-05-10T01:57:12.222Z,12.30
2019-05-10T01:59:45.694Z,12.53
2019-05-10T02:02:18.025Z,12.77
2019-05-10T02:04:51.449Z,12.70
2019-05-10T02:07:23.802Z,12.00
2019-05-10T02:09:56.058Z,12.07
2019-05-10T02:12:28.384Z,11.60
2019-05-10T02:15:00.634Z,12.77
2019-05-10T02:17:33.267Z,12.27
2019-05-10T02:20:05.754Z,12.17
2019-05-10T02:22:38.089Z,12.40
2019-05-10T02:25:10.360Z,10.70
2019-05-10T02:27:42.958Z,12.60
2019-05-10T02:30:15.512Z,11.80
2019-05-10T02:32:48.075Z,12.70
2019-05-10T02:35:22.222Z,11.37
2019-05-10T02:37:54.816Z,11.67
2019-05-10T02:40:27.086Z,11.62
2019-05-10T02:42:59.434Z,11.90
2019-05-10T02:45:31.726Z,12.80
2019-05-10T02:48:04.036Z,13.03
2019-05-10T02:50:36.597Z,12.60
2019-05-10T02:53:09.045Z,14.17
2019-05-10T02:55:42.084Z,12.63
2019-05-10T02:58:15.588Z,12.73
2019-05-10T03:00:50.013Z,13.47
2019-05-10T03:03:25.721Z,12.23
2019-05-10T03:05:58.657Z,12.53
2019-05-10T03:08:46.504Z,12.73
2019-05-10T03:11:21.032Z,12.93
2019-05-10T03:13:54.260Z,13.20
2019-05-10T03:16:26.502Z,14.43
2019-05-10T03:18:59.531Z,15.23
2019-05-10T03:21:36.568Z,13.97
2019-05-10T03:24:09.146Z,14.10
2019-05-10T03:26:50.840Z,14.33
2019-05-10T03:29:17.480Z,14.57
2019-05-10T03:31:51.014Z,14.50
2019-05-10T03:34:23.562Z,14.37
2019-05-10T03:36:56.153Z,15.30
2019-05-10T03:39:29.506Z,15.77
2019-05-10T03:42:01.913Z,16.10
2019-05-10T03:44:34.241Z,15.77
2019-05-10T03:47:06.767Z,17.33
2019-05-10T03:49:39.114Z,16.60
2019-05-10T03:52:11.371Z,16.60
2019-05-10T03:54:43.688Z,16.37
2019-05-10T03:57:16.343Z,16.13
2019-05-10T03:59:48.673Z,15.90
2019-05-10T04:02:20.927Z,16.27
2019-05-10T04:04:53.265Z,16.63
2019-05-10T04:07:25.829Z,16.50
2019-05-10T04:09:58.169Z,16.40
2019-05-10T04:12:30.477Z,15.93
2019-05-10T04:15:02.726Z,16.17
2019-05-10T04:17:35.234Z,17.03
2019-05-10T04:20:07.579Z,17.48
2019-05-10T04:22:39.898Z,17.70
2019-05-10T04:25:12.375Z,17.23
2019-05-10T04:27:44.705Z,17.60
2019-05-10T04:30:17.261Z,18.33
2019-05-10T04:32:49.686Z,17.65
2019-05-10T04:35:21.944Z,19.33
2019-05-10T04:37:54.787Z,17.70
2019-05-10T04:40:27.064Z,20.40
2019-05-10T04:43:00.197Z,19.87
2019-05-10T04:45:32.492Z,18.43
2019-05-10T04:48:04.996Z,19.23
2019-05-10T04:50:37.271Z,20.67
2019-05-10T04:53:09.603Z,22.00
2019-05-10T04:55:41.875Z,20.63
2019-05-10T04:58:14.249Z,21.45
2019-05-10T05:00:46.506Z,20.40
2019-05-10T05:03:19.043Z,21.60
2019-05-10T05:05:51.576Z,19.83
2019-05-10T05:08:24.193Z,21.23
2019-05-10T05:10:56.712Z,21.63
2019-05-10T05:13:29.595Z,21.93
2019-05-10T05:16:01.864Z,21.63
2019-05-10T05:18:34.161Z,22.17
2019-05-10T05:21:06.428Z,22.45
2019-05-10T05:23:39.596Z,22.43
2019-05-10T05:26:12.152Z,24.10
2019-05-10T05:28:44.727Z,21.87
2019-05-10T05:31:17.260Z,22.55
2019-05-10T05:33:50.584Z,22.73
2019-05-10T05:36:22.855Z,23.47
2019-05-10T05:38:55.202Z,21.80
2019-05-10T05:41:31.715Z,22.10
2019-05-10T05:44:02.041Z,22.00
2019-05-10T05:46:34.578Z,20.57
2019-05-10T05:49:06.919Z,20.50
2019-05-10T05:51:39.164Z,18.90
2019-05-10T05:54:14.992Z,20.07
2019-05-10T05:56:50.490Z,20.03
2019-05-10T05:59:23.763Z,19.57
2019-05-10T06:02:00.482Z,20.43
2019-05-10T06:04:30.261Z,19.70
2019-05-10T06:07:02.545Z,19.60
2019-05-10T06:09:37.918Z,20.10
2019-05-10T06:12:12.620Z,19.77
2019-05-10T06:14:49.482Z,19.57
2019-05-10T06:17:17.187Z,18.17
2019-05-10T06:19:49.928Z,18.53
2019-05-10T06:22:22.221Z,19.27
2019-05-10T06:24:54.603Z,18.10
2019-05-10T06:27:26.903Z,17.03
2019-05-10T06:29:59.276Z,16.75
2019-05-10T06:32:32.143Z,17.20
2019-05-10T06:35:04.831Z,17.10
2019-05-10T06:37:37.181Z,17.77
2019-05-10T06:40:10.185Z,19.37
2019-05-10T06:42:43.364Z,18.33
2019-05-10T06:45:17.382Z,18.10
2019-05-10T06:47:53.180Z,18.87
2019-05-10T06:50:29.830Z,17.57
2019-05-10T06:53:06.658Z,17.53
2019-05-10T06:55:58.613Z,16.27
2019-05-10T06:58:36.313Z,16.17
2019-05-10T07:01:05.550Z,15.64
2019-05-10T07:06:40.313Z,14.10
2019-05-10T07:09:12.880Z,14.90
2019-05-10T07:11:45.538Z,14.33
2019-05-10T07:14:18.094Z,13.83
2019-05-10T07:16:50.399Z,13.10
2019-05-10T07:19:22.716Z,11.97
2019-05-10T07:21:55.026Z,12.20
2019-05-10T07:24:27.628Z,12.43
2019-05-10T07:27:02.368Z,12.65
2019-05-10T07:29:42.177Z,11.78
2019-05-10T07:32:09.219Z,11.47
2019-05-10T07:34:41.552Z,12.47
2019-05-10T07:37:13.844Z,11.53
2019-05-10T07:39:46.229Z,12.80
2019-05-10T07:42:18.483Z,12.10
2019-05-10T07:44:50.840Z,11.80
2019-05-10T07:47:29.893Z,12.23
2019-05-10T07:49:57.960Z,13.53
2019-05-10T07:52:36.285Z,11.93
2019-05-10T07:55:10.112Z,13.22
2019-05-10T07:57:40.724Z,13.07
2019-05-10T08:00:19.271Z,13.97
2019-05-10T08:03:06.066Z,13.93
2019-05-10T08:05:26.099Z,14.57
2019-05-10T08:07:58.997Z,13.43
2019-05-10T08:10:32.753Z,13.85
2019-05-10T08:13:05.040Z,11.63
2019-05-10T08:15:38.383Z,10.44
2019-05-10T08:18:15.245Z,9.70
2019-05-10T08:20:53.536Z,8.97
2019-05-10T08:23:23.905Z,8.80
2019-05-10T08:25:54.112Z,7.97
2019-05-10T08:28:28.090Z,7.70
2019-05-10T08:31:02.472Z,6.90
2019-05-10T08:33:34.376Z,6.13
2019-05-10T08:36:06.677Z,5.85
2019-05-10T08:38:39.707Z,5.77
2019-05-10T08:41:18.141Z,5.80
2019-05-10T08:43:48.064Z,6.47
2019-05-10T08:46:29.218Z,5.57
2019-05-10T08:48:54.824Z,4.70
2019-05-10T08:51:27.207Z,4.93
2019-05-10T08:54:01.769Z,4.30
2019-05-10T08:56:33.965Z,3.85
2019-05-10T08:59:09.590Z,3.93
2019-05-10T09:01:46.477Z,4.20
2019-05-10T09:04:14.734Z,4.03
2019-05-10T09:06:47.447Z,4.67
2019-05-10T09:09:22.784Z,3.60
2019-05-10T09:11:57.844Z,3.60
2019-05-10T09:14:32.549Z,3.50
2019-05-10T09:17:04.612Z,3.57
2019-05-10T09:19:41.930Z,3.77
2019-05-10T09:22:12.534Z,3.40
2019-05-10T09:24:48.582Z,3.23
2019-05-10T09:27:18.855Z,3.10
2019-05-10T09:29:53.000Z,3.07
2019-05-10T09:32:28.933Z,2.93
2019-05-10T09:34:59.887Z,3.20
2019-05-10T09:37:33.151Z,3.17
2019-05-10T09:40:09.893Z,3.00
2019-05-10T09:42:43.627Z,3.30
2019-05-10T09:45:15.885Z,3.07
2019-05-10T09:47:48.138Z,3.00
2019-05-10T09:50:22.948Z,2.57
2019-05-10T09:52:55.398Z,2.60
2019-05-10T09:55:28.152Z,2.33
2019-05-10T09:58:00.890Z,2.20
2019-05-10T10:00:37.951Z,2.00
2019-05-10T10:03:12.564Z,2.40
2019-05-10T10:05:43.923Z,2.40
2019-05-10T10:08:17.629Z,2.43
2019-05-10T10:10:50.640Z,2.40
2019-05-10T10:13:38.904Z,2.55
2019-05-10T10:15:58.158Z,2.77
2019-05-10T10:18:30.860Z,2.60
2019-05-10T10:21:03.234Z,2.60
2019-05-10T10:23:37.793Z,2.60
2019-05-10T10:26:12.818Z,2.77
2019-05-10T10:28:49.822Z,3.17
2019-05-10T10:31:29.750Z,3.03
2019-05-10T10:34:02.643Z,3.53
2019-05-10T10:36:30.250Z,3.90
2019-05-10T10:39:03.058Z,3.97
2019-05-10T10:41:35.701Z,4.40
2019-05-10T10:44:08.503Z,4.78
2019-05-10T10:46:41.177Z,4.87
2019-05-10T10:49:14.840Z,4.90
2019-05-10T10:51:47.752Z,4.43
2019-05-10T10:54:22.381Z,4.93
2019-05-10T10:56:59.349Z,4.30
2019-05-10T10:59:29.238Z,4.60
2019-05-10T11:02:27.886Z,3.57
2019-05-10T11:04:40.565Z,2.80
2019-05-10T11:07:11.329Z,2.63
2019-05-10T11:09:43.972Z,2.20
2019-05-10T11:12:22.707Z,2.30
2019-05-10T11:14:50.250Z,2.80
2019-05-10T11:17:22.513Z,3.00
2019-05-10T11:19:54.823Z,2.97
2019-05-10T11:22:27.573Z,3.00
2019-05-10T11:25:08.634Z,2.60
2019-05-10T11:27:34.306Z,2.43
2019-05-10T11:30:12.183Z,2.50
2019-05-10T11:32:44.590Z,2.30
2019-05-10T11:35:27.007Z,2.42
2019-05-10T11:37:51.316Z,2.20
2019-05-10T11:40:30.895Z,2.07
2019-05-10T11:42:57.645Z,1.90
2019-05-10T11:45:34.276Z,1.93
2019-05-10T11:48:04.302Z,2.00
2019-05-10T11:50:36.664Z,1.90
2019-05-10T11:53:13.275Z,1.70
2019-05-10T11:55:43.610Z,1.90
2019-05-10T11:58:16.153Z,2.07
2019-05-10T12:00:55.707Z,1.87
2019-05-10T12:03:23.545Z,1.77
2019-05-10T12:06:04.692Z,1.90
2019-05-10T12:08:30.546Z,1.60
2019-05-10T12:11:12.430Z,1.50
2019-05-10T12:13:37.421Z,1.65
2019-05-10T12:16:12.353Z,1.87
2019-05-10T12:19:00.857Z,1.66
2019-05-10T12:21:18.066Z,1.97
2019-05-10T12:26:33.846Z,1.70
2019-05-10T12:29:02.564Z,1.90
2019-05-10T12:31:32.481Z,1.87
2019-05-10T12:34:09.113Z,2.03
2019-05-10T12:36:41.194Z,1.75
2019-05-10T12:39:13.648Z,1.90
2019-05-10T12:41:49.653Z,1.43
2019-05-10T12:44:20.222Z,1.47
2019-05-10T12:46:54.142Z,1.73
2019-05-10T12:49:26.562Z,2.10
2019-05-10T12:51:58.866Z,1.50
2019-05-10T12:54:33.275Z,2.33
2019-05-10T12:57:05.546Z,1.80
2019-05-10T12:59:38.425Z,1.87
2019-05-10T13:02:12.974Z,1.70
2019-05-10T13:04:47.084Z,1.83
2019-05-10T13:07:19.947Z,2.27
2019-05-10T13:10:01.475Z,1.60
2019-05-10T13:12:26.358Z,1.80
2019-05-10T13:14:58.770Z,1.60
2019-05-10T13:17:31.759Z,1.60
2019-05-10T13:20:05.097Z,1.83
2019-05-10T13:22:39.272Z,1.60
2019-05-10T13:25:11.878Z,1.80
2019-05-10T13:27:44.228Z,1.60
2019-05-10T13:30:27.444Z,1.77
2019-05-10T13:32:58.567Z,1.67
2019-05-10T13:35:29.686Z,1.70
2019-05-10T13:38:03.984Z,2.27
2019-05-10T13:40:38.905Z,2.37
2019-05-10T13:43:10.683Z,3.33
2019-05-10T13:45:42.979Z,2.23
2019-05-10T13:48:16.480Z,2.00
2019-05-10T13:50:49.113Z,2.20
2019-05-10T13:53:23.273Z,1.93
2019-05-10T13:55:55.652Z,1.90
2019-05-10T13:58:28.222Z,1.80
2019-05-10T14:01:00.505Z,1.80
2019-05-10T14:03:43.662Z,1.80
2019-05-10T14:06:06.909Z,1.70
2019-05-10T14:08:42.988Z,2.00
2019-05-10T14:11:13.529Z,1.63
2019-05-10T14:13:45.882Z,1.93
2019-05-10T14:16:19.534Z,2.07
2019-05-10T14:18:52.191Z,2.10
2019-05-10T14:21:25.034Z,2.20
2019-05-10T14:23:57.395Z,1.80
2019-05-10T14:26:30.026Z,2.23
2019-05-10T14:29:02.717Z,2.10
2019-05-10T14:31:35.004Z,2.70
2019-05-10T14:34:15.708Z,2.10
2019-05-10T14:36:43.584Z,2.20
2019-05-10T14:39:15.922Z,2.60
2019-05-10T14:41:50.975Z,2.10
2019-05-10T14:44:22.264Z,2.50
2019-05-10T14:46:54.866Z,2.75
2019-05-10T14:49:28.641Z,2.20
2019-05-10T14:52:01.112Z,2.37
2019-05-10T14:54:43.103Z,2.30
2019-05-10T14:57:08.027Z,2.50
2019-05-10T14:59:40.839Z,2.43
2019-05-10T15:02:16.865Z,2.30
2019-05-10T15:04:47.895Z,2.22
2019-05-10T15:07:20.189Z,2.17
2019-05-10T15:09:54.228Z,2.57
2019-05-10T15:12:26.687Z,2.33
2019-05-10T15:14:58.986Z,2.03
2019-05-10T15:17:31.304Z,2.20
2019-05-10T15:20:03.581Z,2.43
2019-05-10T15:22:35.951Z,2.33
2019-05-10T15:25:09.080Z,2.50
2019-05-10T15:27:41.762Z,3.23
2019-05-10T15:30:14.908Z,2.33
2019-05-10T15:32:47.242Z,2.50
2019-05-10T15:35:19.534Z,2.63
2019-05-10T15:37:51.876Z,3.13
2019-05-10T15:40:24.927Z,2.33
2019-05-10T15:42:57.196Z,2.62
2019-05-10T15:45:29.530Z,2.40
2019-05-10T15:48:02.903Z,4.87
2019-05-10T15:53:10.284Z,2.77
2019-05-10T15:55:43.318Z,3.13
2019-05-10T15:58:16.344Z,3.10
2019-05-10T15:59:23.467Z,2.87
2019-05-10T16:00:48.974Z,3.10
2019-05-10T16:03:21.410Z,3.58
2019-05-10T16:06:00.925Z,3.10
2019-05-10T16:08:30.869Z,2.90
2019-05-10T16:11:04.058Z,3.47
2019-05-10T16:13:36.526Z,2.17
2019-05-10T16:16:08.740Z,3.00
2019-05-10T16:18:41.845Z,2.83
2019-05-10T16:21:15.229Z,2.40
2019-05-10T16:23:48.378Z,2.43
2019-05-10T16:26:22.790Z,2.55
2019-05-10T16:29:02.037Z,2.20
2019-05-10T16:31:30.196Z,2.50
2019-05-10T16:34:02.494Z,2.23
2019-05-10T16:36:34.819Z,2.35
2019-05-10T16:39:08.250Z,2.13
2019-05-10T16:41:40.529Z,2.30
2019-05-10T16:44:12.790Z,2.30
2019-05-10T16:46:45.994Z,2.42
2019-05-10T16:49:18.522Z,2.50
2019-05-10T16:51:50.861Z,2.30
2019-05-10T16:54:27.168Z,2.92
2019-05-10T16:56:59.770Z,2.30
2019-05-10T16:59:35.174Z,3.10
2019-05-10T17:02:06.900Z,2.40
2019-05-10T17:04:39.828Z,2.47
2019-05-10T17:07:12.865Z,2.13
2019-05-10T17:09:49.494Z,2.57
2019-05-10T17:12:22.024Z,2.60
2019-05-10T17:14:59.771Z,2.37
2019-05-10T17:17:31.363Z,2.87
2019-05-10T17:20:07.315Z,2.60
2019-05-10T17:22:37.907Z,2.40
2019-05-10T17:25:10.290Z,2.50
2019-05-10T17:27:42.615Z,2.40
2019-05-10T17:30:15.126Z,2.27
2019-05-10T17:32:47.872Z,2.22
2019-05-10T17:35:20.395Z,2.30
2019-05-10T17:37:53.257Z,2.70
2019-05-10T17:40:25.513Z,2.40
2019-05-10T17:42:57.800Z,2.58
2019-05-10T17:45:34.690Z,2.23
2019-05-10T17:48:08.567Z,2.37
2019-05-10T17:50:38.382Z,2.50
2019-05-10T17:53:11.030Z,2.43
2019-05-10T17:55:43.389Z,2.70
2019-05-10T17:58:17.762Z,2.80
2019-05-10T18:00:50.089Z,2.50
2019-05-10T18:03:22.343Z,2.27
2019-05-10T18:05:55.267Z,2.43
2019-05-10T18:08:27.562Z,2.87
2019-05-10T18:11:04.168Z,2.60
2019-05-10T18:13:35.685Z,2.40
2019-05-10T18:16:09.555Z,2.30
2019-05-10T18:18:47.174Z,1.93
2019-05-10T18:21:22.082Z,2.10
2019-05-10T18:23:52.787Z,2.10
2019-05-10T18:26:25.237Z,2.37
2019-05-10T18:28:57.504Z,2.43
2019-05-10T18:31:30.201Z,2.73
2019-05-10T18:34:02.477Z,2.00
2019-05-10T18:36:51.141Z,2.13
2019-05-10T18:39:15.686Z,2.30
2019-05-10T18:41:46.682Z,3.03
2019-05-10T18:44:18.596Z,2.33
2019-05-10T18:46:50.850Z,2.50
2019-05-10T18:49:23.195Z,2.33
2019-05-10T18:52:03.359Z,2.20
2019-05-10T18:54:29.764Z,2.40
2019-05-10T18:57:04.480Z,2.20
2019-05-10T18:59:39.921Z,2.40
2019-05-10T19:02:17.792Z,2.17
2019-05-10T19:04:52.061Z,2.30
2019-05-10T19:07:21.678Z,2.27
2019-05-10T19:09:54.047Z,2.33
2019-05-10T19:12:26.849Z,2.17
2019-05-10T19:15:02.379Z,3.00
2019-05-10T19:17:33.962Z,2.20
2019-05-10T19:20:09.540Z,2.30
2019-05-10T19:22:42.709Z,2.30
2019-05-10T19:25:16.308Z,2.20
2019-05-10T19:27:50.808Z,2.33
2019-05-10T19:30:23.141Z,2.33
2019-05-10T19:32:56.652Z,2.33
2019-05-10T19:35:35.138Z,2.23
2019-05-10T19:38:04.091Z,2.50
2019-05-10T19:40:36.334Z,2.58
2019-05-10T19:43:09.050Z,2.77
2019-05-10T19:45:41.323Z,2.60
2019-05-10T19:48:13.633Z,2.40
2019-05-10T19:50:46.265Z,2.53
2019-05-10T19:53:19.383Z,2.53
2019-05-10T19:55:57.206Z,2.35
2019-05-10T19:58:32.342Z,2.60
2019-05-10T20:01:01.187Z,3.20
2019-05-10T20:03:33.601Z,2.80
2019-05-10T20:06:05.959Z,2.67
2019-05-10T20:08:38.293Z,3.30
2019-05-10T20:11:10.643Z,3.70
2019-05-10T20:13:42.979Z,2.77
2019-05-10T20:16:16.057Z,3.00
2019-05-10T20:18:48.398Z,2.80
2019-05-10T20:21:20.778Z,2.67
2019-05-10T20:23:53.128Z,2.33
2019-05-10T20:26:25.664Z,2.67
2019-05-10T20:28:58.023Z,2.10
2019-05-10T20:31:30.821Z,2.27
2019-05-10T20:34:03.307Z,2.40
2019-05-10T20:36:35.745Z,3.13
2019-05-10T20:39:09.290Z,3.37
2019-05-10T20:41:41.741Z,3.47
2019-05-10T20:44:15.476Z,3.03
2019-05-10T20:46:48.242Z,3.10
2019-05-10T20:49:20.953Z,3.10
2019-05-10T20:51:53.623Z,2.77
2019-05-10T20:54:30.672Z,2.58
2019-05-10T20:57:03.338Z,2.87
2019-05-10T20:59:36.058Z,3.40
2019-05-10T21:02:08.476Z,3.40
2019-05-10T21:04:41.796Z,3.47
2019-05-10T21:07:14.398Z,3.63
2019-05-10T21:09:47.227Z,5.10
2019-05-10T21:12:19.652Z,7.53
2019-05-10T21:14:52.406Z,11.07
2019-05-10T21:17:26.020Z,16.80
2019-05-10T21:19:58.419Z,15.93
2019-05-10T21:22:30.852Z,18.23
2019-05-10T21:25:03.194Z,18.23
2019-05-10T21:27:36.600Z,18.23
2019-05-10T21:30:09.560Z,17.80
2019-05-10T21:32:42.264Z,18.47
2019-05-10T21:35:17.150Z,17.10
2019-05-10T21:37:50.039Z,14.98
2019-05-10T21:40:22.639Z,13.23
2019-05-10T21:42:55.297Z,12.03
2019-05-10T21:45:27.698Z,10.97
2019-05-10T21:48:00.044Z,9.80
2019-05-10T21:50:32.732Z,7.85
2019-05-10T21:53:05.465Z,7.87
2019-05-10T21:55:37.883Z,6.47
2019-05-10T21:58:10.817Z,5.90
2019-05-10T22:00:45.021Z,5.77
2019-05-10T22:03:17.437Z,5.00
2019-05-10T22:05:49.846Z,5.43
2019-05-10T22:08:22.193Z,5.97
2019-05-10T22:10:54.580Z,6.40
2019-05-10T22:13:28.448Z,7.03
2019-05-10T22:16:01.167Z,6.00
2019-05-10T22:18:34.043Z,6.27
2019-05-10T22:21:06.417Z,6.37
2019-05-10T22:23:38.816Z,5.90
2019-05-10T22:26:11.127Z,4.90
2019-05-10T22:28:43.558Z,4.60
2019-05-10T22:31:15.884Z,5.03
2019-05-10T22:33:48.305Z,4.57
2019-05-10T22:36:20.803Z,4.30
2019-05-10T22:39:06.525Z,4.13
2019-05-10T22:41:28.488Z,3.90
2019-05-10T22:44:01.401Z,4.50
2019-05-10T22:46:33.635Z,4.87
2019-05-10T22:49:05.936Z,6.77
2019-05-10T22:51:38.203Z,5.27
2019-05-10T22:54:10.540Z,3.97
2019-05-10T22:56:43.378Z,4.57
2019-05-10T22:59:15.658Z,3.73
2019-05-10T23:01:48.194Z,4.03
2019-05-10T23:04:20.454Z,3.70
2019-05-10T23:06:52.699Z,3.60
2019-05-10T23:09:25.371Z,3.40
2019-05-10T23:11:57.640Z,3.40
2019-05-10T23:14:30.228Z,3.57
2019-05-10T23:17:02.756Z,3.47
2019-05-10T23:19:35.063Z,3.80
2019-05-10T23:22:07.353Z,3.43
2019-05-10T23:24:40.087Z,3.50
2019-05-10T23:27:12.315Z,3.63
2019-05-10T23:29:44.692Z,4.00
2019-05-10T23:32:17.005Z,3.90
2019-05-10T23:34:49.284Z,3.93
2019-05-10T23:37:22.127Z,3.50
2019-05-10T23:39:54.720Z,3.60
2019-05-10T23:42:26.966Z,3.67
2019-05-10T23:45:00.138Z,3.52
2019-05-10T23:47:32.439Z,4.10
2019-05-10T23:50:04.845Z,4.08
2019-05-10T23:52:37.340Z,3.70
2019-05-10T23:55:09.690Z,4.73
2019-05-10T23:57:41.960Z,4.03
